Time;durP1;ratioP1;P1;durP2;ratioP2;P2;SDS_P1;SDS_P2;PMS_P1;PMS_P2;Temp;Humidity;BMP_temperature;BMP_pressure;BME280_temperature;BME280_humidity;BME280_pressure;Samples;Min_cycle;Max_cycle;Signal;HPM_P1;HPM_P2
2021/05/14 00:02:04;;;;;;;35.58;18.80;;;;;;;12.47;64.35;100194.72;4414141;32;20065;-75
2021/05/14 00:04:30;;;;;;;30.40;16.85;;;;;;;12.06;66.08;100197.97;4410570;32;20028;-75
2021/05/14 00:06:55;;;;;;;32.20;16.23;;;;;;;12.29;65.27;100199.50;4412466;32;20700;-75
2021/05/14 00:09:21;;;;;;;30.12;15.68;;;;;;;12.19;65.82;100198.69;4411771;32;20103;-75
2021/05/14 00:11:47;;;;;;;34.35;16.52;;;;;;;12.31;65.29;100199.81;4411925;32;20085;-76
2021/05/14 00:14:14;;;;;;;31.40;17.35;;;;;;;12.21;65.42;100198.22;4412237;32;20069;-75
2021/05/14 00:16:40;;;;;;;27.92;15.88;;;;;;;12.24;65.22;100200.09;4409649;32;20029;-75
2021/05/14 00:19:06;;;;;;;31.12;16.02;;;;;;;12.25;65.42;100202.47;4411671;32;20156;-75
2021/05/14 00:21:33;;;;;;;35.17;17.98;;;;;;;12.29;65.20;100203.09;4410894;32;20486;-75
2021/05/14 00:23:59;;;;;;;39.40;17.05;;;;;;;12.28;65.14;100201.53;4412563;32;20406;-76
2021/05/14 00:26:25;;;;;;;35.08;16.98;;;;;;;12.27;65.04;100194.31;4410430;32;20065;-75
2021/05/14 00:28:51;;;;;;;34.78;15.98;;;;;;;12.25;65.48;100199.66;4413214;32;20185;-75
2021/05/14 00:31:17;;;;;;;37.08;17.67;;;;;;;12.30;65.36;100201.84;4408042;32;20046;-75
2021/05/14 00:33:43;;;;;;;26.45;15.52;;;;;;;12.26;65.54;100203.22;4409945;32;20130;-75
2021/05/14 00:36:09;;;;;;;33.47;17.17;;;;;;;12.35;65.34;100204.06;4412452;32;20085;-75
2021/05/14 00:38:36;;;;;;;34.90;17.05;;;;;;;12.28;65.61;100201.53;4414136;32;20101;-75
2021/05/14 00:41:03;;;;;;;31.92;15.85;;;;;;;12.39;64.96;100207.53;4412328;32;20603;-75
2021/05/14 00:43:30;;;;;;;30.58;16.42;;;;;;;12.51;64.92;100203.81;4413746;32;20108;-75
2021/05/14 00:45:56;;;;;;;31.58;16.95;;;;;;;12.53;64.52;100206.19;4411764;32;20085;-76
2021/05/14 00:48:22;;;;;;;32.60;17.48;;;;;;;12.48;64.90;100203.97;4411915;32;20089;-75
2021/05/14 00:50:48;;;;;;;31.73;17.55;;;;;;;12.40;64.62;100205.50;4411918;32;20120;-76
2021/05/14 00:53:14;;;;;;;31.92;16.95;;;;;;;12.49;64.19;100197.84;4411058;32;20510;-75
2021/05/14 00:55:39;;;;;;;33.15;16.30;;;;;;;12.58;63.44;100205.59;4413926;32;20105;-75
2021/05/14 00:58:05;;;;;;;27.08;13.77;;;;;;;12.30;64.67;100199.03;4413687;32;20180;-75
2021/05/14 01:00:31;;;;;;;26.67;14.18;;;;;;;12.32;63.79;100201.38;4411423;32;20087;-75
2021/05/14 01:02:57;;;;;;;24.37;13.77;;;;;;;12.19;64.56;100197.88;4410669;32;20085;-76
2021/05/14 01:05:23;;;;;;;30.42;16.17;;;;;;;12.43;63.30;100204.59;4411555;32;20704;-75
2021/05/14 01:07:50;;;;;;;28.55;17.48;;;;;;;12.52;63.55;100211.03;4411869;32;20018;-75
2021/05/14 01:10:17;;;;;;;37.70;17.48;;;;;;;12.53;63.79;100201.34;4411714;32;20072;-75
2021/05/14 01:12:43;;;;;;;29.05;16.02;;;;;;;12.60;63.93;100198.22;4411003;32;20077;-75
2021/05/14 01:15:09;;;;;;;27.80;15.20;;;;;;;12.63;63.59;100202.13;4410791;32;20049;-75
2021/05/14 01:17:35;;;;;;;27.77;14.60;;;;;;;12.43;63.76;100199.72;4408173;32;20077;-76
2021/05/14 01:20:01;;;;;;;28.12;15.38;;;;;;;12.39;64.18;100201.12;4406278;32;20136;-76
2021/05/14 01:22:28;;;;;;;28.92;14.65;;;;;;;12.34;64.61;100198.91;4410860;32;20077;-75
2021/05/14 01:24:55;;;;;;;24.83;13.23;;;;;;;12.39;64.42;100195.47;4411675;32;20150;-74
2021/05/14 01:27:21;;;;;;;25.65;12.63;;;;;;;12.45;64.00;100187.97;4411737;32;20073;-75
2021/05/14 01:29:47;;;;;;;26.40;12.40;;;;;;;12.48;64.07;100195.50;4410678;32;20422;-74
2021/05/14 01:32:14;;;;;;;20.92;11.05;;;;;;;12.45;64.02;100185.16;4412129;32;20034;-74
2021/05/14 01:34:40;;;;;;;22.83;11.45;;;;;;;12.48;63.67;100182.19;4409302;32;20093;-75
2021/05/14 01:37:06;;;;;;;21.90;11.55;;;;;;;12.35;64.17;100189.16;4411949;32;20060;-75
2021/05/14 01:39:31;;;;;;;24.15;11.80;;;;;;;12.36;63.45;100185.13;4410979;32;20070;-75
2021/05/14 01:41:57;;;;;;;27.15;14.65;;;;;;;12.41;63.83;100187.31;4411893;32;20025;-75
2021/05/14 01:44:23;;;;;;;22.95;15.20;;;;;;;12.34;63.89;100187.59;4410769;32;20054;-75
2021/05/14 01:46:49;;;;;;;26.67;14.63;;;;;;;12.38;63.61;100186.22;4408573;32;20073;-74
2021/05/14 01:49:15;;;;;;;27.92;14.70;;;;;;;12.30;63.61;100189.78;4410780;32;20418;-74
2021/05/14 01:51:41;;;;;;;31.50;14.90;;;;;;;12.19;63.97;100193.03;4409066;32;20038;-75
2021/05/14 01:54:07;;;;;;;29.83;15.02;;;;;;;12.19;64.41;100180.97;4408372;32;20374;-74
2021/05/14 01:56:33;;;;;;;26.08;15.07;;;;;;;12.18;64.16;100185.81;4409927;32;20069;-75
2021/05/14 01:58:59;;;;;;;25.65;14.00;;;;;;;11.95;65.39;100184.28;4412872;32;20120;-75
2021/05/14 02:01:25;;;;;;;26.90;12.80;;;;;;;12.02;65.06;100186.03;4410755;32;20477;-75
2021/05/14 02:03:51;;;;;;;21.15;12.20;;;;;;;11.95;64.77;100184.28;4409574;32;20056;-75
2021/05/14 02:06:17;;;;;;;21.50;11.95;;;;;;;12.10;64.77;100181.69;4412576;32;20760;-74
2021/05/14 02:08:43;;;;;;;28.50;11.38;;;;;;;12.05;64.68;100176.66;4410788;32;20142;-75
2021/05/14 02:11:09;;;;;;;19.15;9.70;;;;;;;12.05;64.57;100173.84;4397337;32;20113;-75
2021/05/14 02:13:37;;;;;;;16.05;10.05;;;;;;;12.00;64.93;100172.41;4412791;32;20042;-75
2021/05/14 02:16:05;;;;;;;22.77;10.27;;;;;;;11.96;65.16;100166.13;4414057;32;20056;-75
2021/05/14 02:18:31;;;;;;;14.80;9.70;;;;;;;11.98;65.60;100171.28;4411940;32;20093;-75
2021/05/14 02:20:57;;;;;;;14.75;9.45;;;;;;;12.00;65.98;100174.44;4413601;32;20022;-75
2021/05/14 02:23:22;;;;;;;16.52;8.82;;;;;;;12.01;65.36;100174.00;4410348;32;20097;-74
2021/05/14 02:25:48;;;;;;;19.67;9.40;;;;;;;11.99;65.68;100168.00;4412598;32;20072;-75
2021/05/14 02:28:14;;;;;;;22.35;9.43;;;;;;;12.00;65.97;100166.00;4414660;32;20046;-74
2021/05/14 02:30:40;;;;;;;20.77;10.18;;;;;;;12.03;66.00;100162.25;4414482;32;20080;-75
2021/05/14 02:33:07;;;;;;;17.67;8.45;;;;;;;12.03;65.96;100162.25;4413849;32;20082;-75
2021/05/14 02:35:34;;;;;;;20.55;10.55;;;;;;;12.04;65.98;100161.78;4410435;32;20076;-75
2021/05/14 02:38:00;;;;;;;15.85;10.57;;;;;;;12.09;65.87;100168.88;4412376;32;20072;-74
2021/05/14 02:40:26;;;;;;;19.67;11.05;;;;;;;12.02;65.66;100167.09;4412822;32;20146;-75
2021/05/14 02:42:53;;;;;;;20.25;11.00;;;;;;;12.03;65.38;100168.66;4412113;32;20149;-75
2021/05/14 02:45:19;;;;;;;20.55;11.55;;;;;;;12.02;65.54;100171.94;4411265;32;20098;-75
2021/05/14 02:47:45;;;;;;;20.88;12.73;;;;;;;11.91;66.02;100165.94;4412994;32;20054;-75
2021/05/14 02:50:11;;;;;;;18.15;12.07;;;;;;;11.87;65.58;100173.72;4410100;32;20444;-75
2021/05/14 02:52:37;;;;;;;27.23;13.10;;;;;;;11.82;65.95;100175.09;4412542;32;20081;-75
2021/05/14 02:55:04;;;;;;;19.08;11.63;;;;;;;11.92;65.74;100167.50;4410792;32;20381;-75
2021/05/14 02:57:30;;;;;;;22.92;12.45;;;;;;;11.98;65.57;100171.28;4411877;32;20072;-75
2021/05/14 02:59:56;;;;;;;22.20;12.98;;;;;;;11.96;65.49;100168.94;4411548;32;20054;-75
2021/05/14 03:02:21;;;;;;;20.70;11.95;;;;;;;11.95;65.68;100167.38;4408600;32;20085;-74
2021/05/14 03:04:47;;;;;;;21.67;11.63;;;;;;;12.00;66.01;100172.41;4412361;32;20054;-75
2021/05/14 03:07:13;;;;;;;21.27;11.93;;;;;;;12.03;65.58;100168.66;4413610;32;20037;-75
2021/05/14 03:09:39;;;;;;;19.15;11.52;;;;;;;12.02;65.60;100175.56;4414617;32;20038;-75
2021/05/14 03:12:05;;;;;;;22.75;13.05;;;;;;;12.06;65.80;100161.31;4413275;32;20086;-75
2021/05/14 03:14:31;;;;;;;29.33;12.75;;;;;;;12.10;65.62;100159.91;4413044;32;20157;-74
2021/05/14 03:16:57;;;;;;;19.60;12.30;;;;;;;12.04;65.95;100161.00;4412959;32;20086;-74
2021/05/14 03:19:22;;;;;;;23.00;13.73;;;;;;;12.06;65.85;100161.31;4411193;32;20132;-75
2021/05/14 03:21:48;;;;;;;25.67;14.70;;;;;;;12.08;66.26;100162.44;4413365;32;20445;-74
2021/05/14 03:24:14;;;;;;;27.17;15.35;;;;;;;11.74;67.22;100151.28;4412098;32;20122;-75
2021/05/14 03:26:40;;;;;;;26.52;15.70;;;;;;;11.73;67.17;100154.56;4413569;32;20050;-75
2021/05/14 03:29:05;;;;;;;29.80;15.55;;;;;;;11.79;67.45;100147.84;4410634;32;20381;-75
2021/05/14 03:31:31;;;;;;;25.60;15.02;;;;;;;11.78;67.79;100146.28;4414295;32;20060;-75
2021/05/14 03:33:57;;;;;;;23.90;14.30;;;;;;;11.81;67.71;100147.38;4399902;32;20103;-74
2021/05/14 03:36:23;;;;;;;24.00;13.88;;;;;;;11.86;67.35;100149.59;4412599;32;20041;-75
2021/05/14 03:38:50;;;;;;;27.20;15.00;;;;;;;11.88;66.65;100149.94;4413409;32;20368;-74
2021/05/14 03:41:31;;;;;;;30.62;16.17;;;;;;;11.83;66.78;100153.34;4413931;32;20442;-75
2021/05/14 03:43:58;;;;;;;29.02;16.85;;;;;;;11.86;66.86;100138.34;4412339;32;20082;-75
2021/05/14 03:46:27;;;;;;;29.00;16.65;;;;;;;11.76;66.96;100150.81;4413503;32;20117;-75
2021/05/14 03:48:53;;;;;;;27.40;17.80;;;;;;;11.90;66.80;100139.78;4410530;32;20051;-75
2021/05/14 03:51:19;;;;;;;31.10;18.70;;;;;;;11.65;67.49;100133.50;4411629;32;20085;-75
2021/05/14 03:53:45;;;;;;;29.87;17.92;;;;;;;11.74;67.48;100130.75;4411843;32;20045;-74
2021/05/14 03:56:12;;;;;;;32.92;18.90;;;;;;;11.78;67.65;100134.19;4399090;32;20375;-75
2021/05/14 03:58:38;;;;;;;35.28;19.62;;;;;;;11.80;67.85;100134.53;4411840;32;20056;-77
2021/05/14 04:01:04;;;;;;;31.87;19.02;;;;;;;11.87;67.83;100143.50;4413048;32;20054;-75
2021/05/14 04:03:30;;;;;;;33.33;19.05;;;;;;;11.83;67.72;100133.62;4413451;32;20041;-75
2021/05/14 04:05:56;;;;;;;34.95;19.92;;;;;;;11.74;68.17;100133.56;4412054;32;20026;-75
2021/05/14 04:08:22;;;;;;;35.53;19.40;;;;;;;11.65;68.38;100137.12;4413941;32;20099;-74
2021/05/14 04:11:03;;;;;;;32.33;19.62;;;;;;;11.45;69.22;100119.72;4413112;32;20097;-76
2021/05/14 04:16:15;;;;;;;29.98;17.70;;;;;;;11.71;69.03;100111.94;4409884;32;20200;-75
2021/05/14 04:18:40;;;;;;;32.53;17.62;;;;;;;11.69;68.77;100120.09;4411824;32;20199;-74
2021/05/14 04:21:06;;;;;;;30.45;17.42;;;;;;;11.73;68.83;100123.53;4413251;32;20100;-75
2021/05/14 04:23:33;;;;;;;28.75;17.00;;;;;;;11.87;68.34;100122.97;4409872;32;20073;-75
2021/05/14 04:25:58;;;;;;;34.65;19.17;;;;;;;11.91;67.89;100129.28;4413224;32;20068;-75
2021/05/14 04:28:24;;;;;;;37.67;18.70;;;;;;;11.95;67.65;100127.91;4412195;32;20038;-75
2021/05/14 04:30:50;;;;;;;34.05;19.33;;;;;;;12.06;67.71;100125.44;4414919;32;20034;-75
2021/05/14 04:33:15;;;;;;;34.50;20.15;;;;;;;12.04;67.46;100122.31;4410364;32;20072;-75
2021/05/14 04:35:42;;;;;;;33.65;20.15;;;;;;;12.09;68.23;100126.56;4411147;32;20068;-75
2021/05/14 04:38:07;;;;;;;32.25;18.95;;;;;;;12.09;69.28;100130.12;4413074;32;20045;-75
2021/05/14 04:40:33;;;;;;;35.97;21.02;;;;;;;12.12;69.75;100127.66;4414155;32;20053;-75
2021/05/14 04:43:01;;;;;;;34.67;19.85;;;;;;;12.06;70.24;100131.06;4400680;32;20068;-75
2021/05/14 04:45:27;;;;;;;40.38;20.95;;;;;;;12.16;69.92;100126.25;4414243;32;20060;-75
2021/05/14 04:47:52;;;;;;;33.47;19.45;;;;;;;12.06;71.17;100133.88;4409903;32;20085;-76
2021/05/14 04:50:18;;;;;;;38.78;20.33;;;;;;;12.11;71.01;100129.69;4409515;32;20030;-75
2021/05/14 04:52:45;;;;;;;32.50;17.15;;;;;;;12.05;71.47;100134.34;4409885;32;20064;-76
2021/05/14 04:55:11;;;;;;;20.83;11.60;;;;;;;11.86;72.69;100138.34;4412150;32;20073;-75
2021/05/14 04:57:37;;;;;;;20.20;10.80;;;;;;;11.76;72.05;100131.84;4412751;32;20158;-75
2021/05/14 05:00:05;;;;;;;18.77;10.32;;;;;;;11.76;71.96;100136.72;4410949;32;20434;-76
2021/05/14 05:02:32;;;;;;;21.45;10.93;;;;;;;11.71;72.36;100137.31;4410074;32;20093;-75
2021/05/14 05:04:59;;;;;;;16.67;8.70;;;;;;;11.73;72.69;100138.41;4412641;32;20681;-75
2021/05/14 05:07:25;;;;;;;20.35;8.73;;;;;;;11.62;71.91;100146.50;4411177;32;20623;-75
2021/05/14 05:09:51;;;;;;;19.62;9.57;;;;;;;11.51;72.43;100154.53;4412266;32;20089;-75
2021/05/14 05:12:17;;;;;;;19.87;10.20;;;;;;;11.55;71.89;100146.75;4413051;32;20071;-75
2021/05/14 05:14:43;;;;;;;21.62;10.20;;;;;;;11.45;72.59;100161.22;4412063;32;20061;-75
2021/05/14 05:17:10;;;;;;;24.05;12.57;;;;;;;11.45;72.66;100150.72;4399355;32;20026;-76
2021/05/14 05:19:35;;;;;;;20.08;10.27;;;;;;;11.55;72.48;100155.19;4412170;32;20693;-75
2021/05/14 05:22:01;;;;;;;19.85;9.82;;;;;;;11.64;72.00;100165.75;4410332;32;20106;-75
2021/05/14 05:24:27;;;;;;;17.62;9.65;;;;;;;11.38;72.64;100167.09;4409800;32;20046;-76
2021/05/14 05:26:53;;;;;;;13.68;8.77;;;;;;;11.50;72.98;100161.41;4407824;32;20124;-75
2021/05/14 05:29:18;;;;;;;18.70;9.52;;;;;;;11.47;73.39;100162.31;4412546;32;20131;-75
2021/05/14 05:31:44;;;;;;;20.08;9.75;;;;;;;11.54;73.79;100162.06;4409536;32;20056;-75
2021/05/14 05:34:10;;;;;;;18.90;10.68;;;;;;;11.54;74.35;100167.69;4412346;32;20077;-75
2021/05/14 05:36:36;;;;;;;18.70;10.23;;;;;;;11.57;74.72;100160.38;4411563;32;20112;-74
2021/05/14 05:39:02;;;;;;;17.95;10.32;;;;;;;11.64;74.74;100162.94;4410917;32;20067;-75
2021/05/14 05:41:28;;;;;;;16.35;9.45;;;;;;;11.57;75.36;100166.78;4411975;32;20037;-75
2021/05/14 05:43:54;;;;;;;18.40;10.60;;;;;;;11.54;75.27;100164.88;4410433;32;20090;-75
2021/05/14 05:46:21;;;;;;;18.20;11.25;;;;;;;11.60;75.20;100165.09;4413416;32;20206;-75
2021/05/14 05:48:49;;;;;;;21.00;11.25;;;;;;;11.63;75.87;100178.28;4411438;32;20100;-75
2021/05/14 05:51:15;;;;;;;20.10;10.73;;;;;;;11.61;75.76;100175.91;4413328;32;20033;-75
2021/05/14 05:53:41;;;;;;;20.50;9.90;;;;;;;11.60;75.57;100174.31;4412324;32;20042;-75
2021/05/14 05:56:07;;;;;;;18.50;9.70;;;;;;;11.62;74.20;100179.53;4413941;32;20140;-75
2021/05/14 05:58:33;;;;;;;19.60;10.02;;;;;;;11.60;74.77;100174.31;4414129;32;20134;-75
2021/05/14 06:00:59;;;;;;;18.77;10.50;;;;;;;11.60;74.89;100179.19;4413322;32;20089;-75
2021/05/14 06:03:25;;;;;;;17.35;9.07;;;;;;;11.57;75.93;100182.91;4413166;32;20050;-75
2021/05/14 06:05:50;;;;;;;15.50;8.48;;;;;;;11.57;75.00;100185.72;4416371;32;20080;-76
2021/05/14 06:08:16;;;;;;;17.60;8.35;;;;;;;11.70;74.62;100190.09;4413451;32;20060;-75
2021/05/14 06:10:44;;;;;;;18.33;9.25;;;;;;;11.82;74.38;100192.03;4414172;32;20471;-75
2021/05/14 06:13:10;;;;;;;13.43;7.75;;;;;;;12.02;73.18;100188.84;4415363;32;20509;-76
2021/05/14 06:15:36;;;;;;;15.35;8.68;;;;;;;12.21;72.45;100178.47;4412931;32;20050;-75
2021/05/14 06:18:01;;;;;;;16.92;8.57;;;;;;;12.09;71.02;100178.09;4411600;32;20051;-75
2021/05/14 06:20:29;;;;;;;15.25;8.20;;;;;;;12.24;70.89;100191.66;4413024;32;20052;-75
2021/05/14 06:22:55;;;;;;;21.40;9.00;;;;;;;12.55;69.91;100176.22;4410660;32;20095;-75
2021/05/14 06:25:21;;;;;;;19.35;9.20;;;;;;;12.68;69.11;100196.69;4411279;32;20414;-75
2021/05/14 06:27:46;;;;;;;16.92;9.15;;;;;;;12.93;68.17;100199.25;4413281;32;20558;-76
2021/05/14 06:30:14;;;;;;;17.90;9.98;;;;;;;13.19;66.71;100197.75;4412314;32;20538;-75
2021/05/14 06:32:41;;;;;;;16.37;9.55;;;;;;;13.00;65.91;100198.97;4409361;32;20476;-75
2021/05/14 06:35:08;;;;;;;20.17;10.95;;;;;;;13.11;66.05;100193.66;4407581;32;20078;-74
2021/05/14 06:37:37;;;;;;;19.40;10.32;;;;;;;13.15;67.52;100187.84;4410663;32;20038;-75
2021/05/14 06:40:06;;;;;;;20.58;10.23;;;;;;;13.48;64.47;100202.94;4408473;32;20092;-76
2021/05/14 06:42:32;;;;;;;19.85;9.50;;;;;;;13.76;65.16;100208.12;4408116;32;20073;-76
2021/05/14 06:44:58;;;;;;;24.55;9.85;;;;;;;13.94;62.71;100208.06;4408163;32;20156;-74
2021/05/14 06:47:23;;;;;;;20.20;9.32;;;;;;;14.33;61.96;100200.59;4402353;32;20470;-74
2021/05/14 06:49:49;;;;;;;19.70;9.18;;;;;;;14.41;61.33;100195.38;4406142;32;20545;-75
2021/05/14 06:52:15;;;;;;;13.23;8.55;;;;;;;14.23;60.68;100201.09;4400502;32;20130;-76
2021/05/14 06:54:42;;;;;;;12.98;7.50;;;;;;;14.25;60.64;100202.22;4407959;32;20401;-76
2021/05/14 06:57:07;;;;;;;12.43;6.97;;;;;;;14.40;59.67;100207.97;4403859;32;20117;-77
2021/05/14 06:59:36;;;;;;;13.32;6.85;;;;;;;14.47;59.34;100197.09;4404090;32;20077;-78
2021/05/14 07:02:03;;;;;;;16.75;7.00;;;;;;;14.63;59.34;100193.09;4404705;32;20157;-75
2021/05/14 07:04:29;;;;;;;23.87;7.45;;;;;;;14.53;58.65;100195.19;4384074;32;20793;-74
2021/05/14 07:06:55;;;;;;;12.60;7.00;;;;;;;14.69;58.21;100202.50;4404728;32;20687;-75
2021/05/14 07:09:20;;;;;;;18.65;7.18;;;;;;;14.81;57.58;100201.47;4396526;32;20085;-74
2021/05/14 07:11:46;;;;;;;18.37;7.18;;;;;;;14.98;56.96;100194.94;4399230;32;20106;-75
2021/05/14 07:14:12;;;;;;;14.32;6.57;;;;;;;14.80;57.01;100202.75;4396875;32;20089;-77
2021/05/14 07:16:38;;;;;;;11.75;7.05;;;;;;;15.06;56.18;100201.03;4398932;32;20419;-74
2021/05/14 07:19:04;;;;;;;11.12;6.82;;;;;;;14.70;57.24;100207.69;4400915;32;20041;-74
2021/05/14 07:21:29;;;;;;;19.23;8.27;;;;;;;14.70;57.29;100209.75;4404169;32;20401;-76
2021/05/14 07:23:55;;;;;;;14.45;6.20;;;;;;;14.79;56.67;100221.78;4399162;32;20439;-75
2021/05/14 07:26:21;;;;;;;13.95;7.18;;;;;;;14.99;56.37;100212.72;4402035;32;20521;-75
2021/05/14 07:28:47;;;;;;;12.68;6.65;;;;;;;15.19;55.66;100216.53;4401620;32;20087;-77
2021/05/14 07:31:12;;;;;;;9.27;5.72;;;;;;;15.21;55.63;100214.00;4402838;32;20112;-76
2021/05/14 07:33:39;;;;;;;9.93;5.30;;;;;;;15.24;54.63;100218.69;4405249;32;20481;-74
2021/05/14 07:36:06;;;;;;;7.55;5.18;;;;;;;15.31;53.23;100224.00;4401123;32;20050;-75
2021/05/14 07:38:32;;;;;;;10.50;6.30;;;;;;;15.30;53.63;100222.44;4402217;32;20488;-74
2021/05/14 07:40:58;;;;;;;11.27;6.10;;;;;;;15.24;53.76;100218.69;4402905;32;20101;-74
2021/05/14 07:43:23;;;;;;;9.45;6.03;;;;;;;15.14;53.58;100210.75;4404726;32;20080;-75
2021/05/14 07:45:49;;;;;;;9.07;5.68;;;;;;;15.32;53.34;100207.78;4399408;32;20124;-75
2021/05/14 07:48:22;;;;;;;11.68;6.25;;;;;;;15.17;53.43;100206.94;4404219;32;20081;-74
2021/05/14 07:50:49;;;;;;;8.70;6.18;;;;;;;15.29;53.16;100215.22;4399353;32;20134;-75
2021/05/14 07:53:15;;;;;;;11.05;6.82;;;;;;;15.07;53.53;100205.44;4396809;32;20160;-76
2021/05/14 07:55:42;;;;;;;8.88;5.90;;;;;;;15.24;53.49;100212.25;4400668;32;20472;-76
2021/05/14 07:58:08;;;;;;;10.55;7.05;;;;;;;15.39;52.74;100207.44;4388183;32;20121;-77
2021/05/14 08:00:34;;;;;;;11.70;6.95;;;;;;;15.34;53.04;100208.84;4399080;32;20062;-76
2021/05/14 08:03:00;;;;;;;12.85;7.25;;;;;;;15.19;53.13;100208.00;4398357;32;20390;-76
2021/05/14 08:05:25;;;;;;;15.55;7.10;;;;;;;15.36;53.14;100202.69;4398396;32;20077;-76
2021/05/14 08:08:00;;;;;;;11.20;7.07;;;;;;;15.47;52.52;100209.41;4381224;32;20091;-77
2021/05/14 08:10:27;;;;;;;11.05;6.87;;;;;;;15.63;52.61;100211.03;4398526;32;20097;-76
2021/05/14 08:12:52;;;;;;;9.45;6.62;;;;;;;15.80;51.46;100214.94;4394730;32;20082;-76
2021/05/14 08:15:18;;;;;;;9.70;6.32;;;;;;;16.08;50.62;100210.59;4399686;32;20112;-76
2021/05/14 08:17:49;;;;;;;9.00;5.80;;;;;;;15.82;50.81;100207.53;4397248;32;20090;-77
2021/05/14 08:20:15;;;;;;;10.40;6.12;;;;;;;15.85;51.02;100211.44;4401488;32;20067;-75
2021/05/14 08:22:41;;;;;;;11.95;5.93;;;;;;;15.88;50.35;100214.09;4395818;32;20148;-78
2021/05/14 08:25:10;;;;;;;9.63;6.10;;;;;;;15.70;50.78;100211.44;4401445;32;20100;-78
2021/05/14 08:27:35;;;;;;;9.60;5.68;;;;;;;15.90;50.02;100213.63;4401457;32;20104;-76
2021/05/14 08:30:02;;;;;;;11.82;6.22;;;;;;;15.93;50.29;100212.63;4400485;32;20132;-76
2021/05/14 08:32:28;;;;;;;8.68;6.35;;;;;;;15.80;50.80;100212.91;4398896;32;20042;-77
2021/05/14 08:34:54;;;;;;;10.43;6.70;;;;;;;15.88;50.58;100204.78;4397740;32;20144;-76
2021/05/14 08:37:20;;;;;;;14.50;7.65;;;;;;;15.89;50.83;100212.81;4399315;32;20054;-77
2021/05/14 08:39:45;;;;;;;15.57;7.18;;;;;;;16.08;50.30;100210.59;4401976;32;20142;-76
2021/05/14 08:42:13;;;;;;;10.23;6.57;;;;;;;16.13;50.31;100203.47;4399327;32;20144;-77
2021/05/14 08:44:39;;;;;;;10.52;6.53;;;;;;;16.37;49.73;100202.06;4396399;32;20123;-76
2021/05/14 08:47:06;;;;;;;11.70;6.32;;;;;;;16.25;49.97;100208.03;4398926;32;20123;-76
2021/05/14 08:49:34;;;;;;;12.23;6.35;;;;;;;16.42;49.34;100198.53;4381318;32;20541;-77
2021/05/14 08:52:04;;;;;;;6.12;4.82;;;;;;;16.47;49.28;100208.47;4398205;32;20092;-77
2021/05/14 08:54:29;;;;;;;9.20;5.22;;;;;;;16.72;48.13;100202.13;4401259;32;20146;-77
2021/05/14 08:56:55;;;;;;;8.23;4.90;;;;;;;16.97;47.48;100202.22;4402413;32;20093;-78
2021/05/14 08:59:21;;;;;;;7.28;4.95;;;;;;;17.15;46.81;100204.06;4388402;32;20712;-78
2021/05/14 09:01:49;;;;;;;7.45;5.35;;;;;;;17.28;46.41;100201.62;4398875;32;20054;-75
2021/05/14 09:04:16;;;;;;;10.73;4.72;;;;;;;17.45;46.30;100197.75;4402011;32;20394;-74
2021/05/14 09:06:43;;;;;;;6.70;3.85;;;;;;;17.78;45.72;100197.34;4401084;32;20210;-74
2021/05/14 09:09:11;;;;;;;7.85;3.00;;;;;;;17.67;44.87;100188.66;4400505;32;20468;-74
2021/05/14 09:11:42;;;;;;;7.60;2.25;;;;;;;17.92;44.32;100190.00;4402179;32;20077;-77
2021/05/14 09:14:45;;;;;;;4.37;2.40;;;;;;;17.86;43.77;100196.41;4402592;32;20481;-78
2021/05/14 09:19:49;;;;;;;5.78;2.72;;;;;;;18.55;43.02;100203.78;3979384;31;15164036;-77
2021/05/14 09:22:18;;;;;;;6.05;3.70;;;;;;;18.55;43.02;100203.78;4448001;32;20124;-75
2021/05/14 09:24:47;;;;;;;5.00;2.97;;;;;;;18.23;43.40;100196.50;4444690;32;20069;-77
2021/05/14 09:27:34;;;;;;;5.93;2.70;;;;;;;18.32;43.19;100187.78;4446495;32;20108;-76
2021/05/14 09:30:02;;;;;;;3.45;2.25;;;;;;;17.96;43.46;100190.53;4442762;32;20381;-75
2021/05/14 09:32:31;;;;;;;4.85;2.60;;;;;;;17.85;43.25;100191.19;4445299;32;20041;-74
2021/05/14 09:35:00;;;;;;;2.87;1.60;;;;;;;17.77;42.37;100190.84;4442970;32;20167;-75
2021/05/14 09:37:27;;;;;;;4.22;2.15;;;;;;;17.27;42.33;100189.47;4441704;32;20049;-75
2021/05/14 09:42:58;;;;;;;4.57;2.10;;;;;;;18.24;42.21;100192.38;3947410;32;15723322;-75
2021/05/14 09:45:29;;;;;;;7.22;3.10;;;;;;;18.24;42.21;100192.38;4425963;32;20464;-76
2021/05/14 09:48:14;;;;;;;4.60;2.70;;;;;;;17.99;42.72;100190.31;4422658;32;20457;-75
2021/05/14 09:50:42;;;;;;;4.05;2.10;;;;;;;18.04;42.10;100178.19;4428107;32;20112;-77
2021/05/14 09:53:17;;;;;;;5.57;2.60;;;;;;;17.55;42.60;100184.16;4425092;32;20164;-76
2021/05/14 09:55:50;;;;;;;7.40;3.45;;;;;;;17.56;43.44;100182.87;4423818;32;20095;-74
2021/05/14 09:58:20;;;;;;;5.05;2.90;;;;;;;17.56;43.72;100182.87;4427493;32;20081;-76
2021/05/14 10:00:47;;;;;;;7.57;2.37;;;;;;;17.82;42.89;100181.59;4422312;32;20173;-78
2021/05/14 10:03:16;;;;;;;3.83;2.05;;;;;;;17.49;42.79;100172.69;4416017;32;20077;-77
2021/05/14 10:05:45;;;;;;;3.08;2.05;;;;;;;17.57;41.89;100173.84;4414034;32;20062;-75
2021/05/14 10:08:14;;;;;;;4.47;2.22;;;;;;;17.24;42.79;100178.28;4415129;32;20192;-76
2021/05/14 10:10:40;;;;;;;8.95;2.78;;;;;;;17.58;42.15;100178.22;4416506;32;20037;-76
2021/05/14 10:13:08;;;;;;;3.90;2.20;;;;;;;17.71;42.12;100178.63;4419593;32;20171;-74
2021/05/14 10:15:35;;;;;;;7.15;2.80;;;;;;;17.74;42.04;100186.16;4416272;32;20475;-76
2021/05/14 10:18:05;;;;;;;9.18;2.62;;;;;;;17.64;42.65;100184.78;4403105;32;20122;-76
2021/05/14 10:20:32;;;;;;;6.05;2.90;;;;;;;17.67;42.83;100180.94;4414711;32;20411;-75
2021/05/14 10:23:00;;;;;;;7.03;2.85;;;;;;;17.80;42.62;100180.56;4417585;32;20422;-79
2021/05/14 10:25:46;;;;;;;9.70;3.15;;;;;;;17.95;42.60;100180.44;4417173;32;20073;-75
2021/05/14 10:28:13;;;;;;;;;;;;;;;18.09;42.14;100174.62;4416254;32;20049;-77
2021/05/14 10:42:00;;;;;;;5.10;2.72;;;;;;;19.52;39.07;100175.59;3979956;32;15022266;-76
2021/05/14 10:44:47;;;;;;;4.32;2.67;;;;;;;19.52;39.07;100175.59;4430765;32;20122;-75
2021/05/14 10:50:13;;;;;;;9.65;4.05;;;;;;;19.58;38.20;100179.25;3973300;32;15025301;-74
2021/05/14 10:53:18;;;;;;;5.40;2.90;;;;;;;19.58;38.20;100179.25;4431473;32;20484;-76
2021/05/14 10:55:45;;;;;;;5.73;2.60;;;;;;;19.49;37.93;100170.91;4429354;32;20124;-77
2021/05/14 10:58:41;;;;;;;7.40;2.85;;;;;;;19.53;37.98;100167.81;4431048;32;20203;-76
2021/05/14 11:01:07;;;;;;;5.82;2.60;;;;;;;19.66;37.24;100174.59;4428412;32;20560;-81
2021/05/14 11:03:34;;;;;;;7.57;2.83;;;;;;;19.57;37.55;100166.28;4431544;32;20548;-79
2021/05/14 11:06:10;;;;;;;5.55;2.80;;;;;;;19.66;37.72;100168.91;4430049;32;20119;-80
2021/05/14 11:11:13;;;;;;;4.70;3.15;;;;;;;20.22;36.93;100163.31;3973062;31;15708693;-77
2021/05/14 11:29:55;;;;;;;7.85;3.20;;;;;;;18.81;39.57;100158.13;3975560;32;15023217;-83
2021/05/14 11:32:24;;;;;;;3.90;2.62;;;;;;;18.81;39.57;100158.13;4423963;32;20026;-77
2021/05/14 11:40:15;;;;;;;4.28;2.70;;;;;;;18.03;40.89;100159.56;3979933;32;15024592;-79
2021/05/14 11:42:44;;;;;;;4.57;2.87;;;;;;;18.03;40.89;100159.56;4432023;32;20110;-80
2021/05/14 11:45:13;;;;;;;5.18;2.65;;;;;;;17.57;41.56;100159.59;4432066;32;20056;-77
2021/05/14 11:47:49;;;;;;;7.70;3.03;;;;;;;17.88;41.50;100161.72;4430981;32;20037;-77
2021/05/14 11:50:24;;;;;;;9.20;4.85;;;;;;;17.91;40.79;100168.50;4430267;32;20069;-82
2021/05/14 11:52:50;;;;;;;8.27;5.12;;;;;;;18.19;42.38;100161.75;4432232;32;20091;-85
2021/05/14 11:55:18;;;;;;;11.98;5.18;;;;;;;17.96;44.38;100153.53;4433827;32;20145;-79
2021/05/14 11:57:51;;;;;;;13.15;5.22;;;;;;;18.29;43.99;100163.16;4432128;32;20069;-88
2021/05/14 12:00:29;;;;;;;9.82;5.25;;;;;;;18.38;43.79;100156.53;4436546;32;20115;-81
2021/05/14 12:02:58;;;;;;;14.10;5.50;;;;;;;18.53;43.44;100151.47;4419224;32;20092;-82